• Join FlightAware (Why Join?)
  • Login
  • US Flag 
11:29AM EDT


 

Airport Tracker/Info


-or-


 

Live Flight TrackerFlight Track Log ✈ HAL306 ✈ 26-Apr-2013 ✈ PHNL - PHOG / OGG

Flight Track Log - Related Links

Times and Time Zones

All times are in EDT time to prevent confusion due to time zone crossing. See the HAL306 flight status page for this flight to view local times or setup timezone preferences in your user account.

Time Position Orientation Groundspeed Altitude Reporting Facility
EDT Latitude Longitude Course Direction KTS MPH feet Rate Location/Type
01:58PM 21.3167 -157.9000 118° Southeast 170 196 1,100  Level Honolulu Center
01:59PM 21.2667 -157.8667 148° Southeast 230 265 2,600 1,860 Climbing Honolulu Center
02:00PM 21.2167 -157.8333 148° Southeast 240 276 4,800 1,980 Climbing Honolulu Center
02:01PM 21.1833 -157.7667 118° Southeast 270 311 6,700 2,040 Climbing Honolulu Center
02:02PM 21.1297 -157.6111 126° Southeast  Level FlightAware Approximate
02:02PM 21.1500 -157.6833 113° Southeast 280 322 9,000  Level Honolulu Center
02:03PM 21.0916 -157.5498 118° Southeast  Level FlightAware Approximate
02:03PM 21.1167 -157.6167 118° Southeast 300 345 10,700  Level Honolulu Center
02:04PM 21.0833 -157.5333 113° Southeast 330 380 12,100 1,080 Climbing Honolulu Center
02:05PM 21.0333 -157.4333 118° Southeast 360 414 12,900 420 Climbing Honolulu Center
02:06PM 20.9833 -157.3333 118° Southeast 370 426 13,000  Climbing Honolulu Center
02:07PM 20.9500 -157.2333 110° East 370 426 13,000  Level Honolulu Center
02:08PM 20.9000 -157.1500 123° Southeast 370 426 13,000  Level Honolulu Center
02:09PM 20.8667 -157.0500 110° East 360 414 13,000 -180 Level Honolulu Center
02:10PM 20.8167 -156.9500 118° Southeast 360 414 12,700 -720 Descending Honolulu Center
02:11PM 20.7833 -156.8667 113° Southeast 330 380 11,600 -1,200 Descending Honolulu Center
02:12PM 20.7667 -156.7833 102° East 270 311 10,300 -1,380 Descending Honolulu Center
02:13PM 20.7833 -156.6833 80° East 260 299 8,900 -1,380 Descending Honolulu Center
02:14PM 20.7833 -156.6167 90° East 230 265 7,600 -1,920 Descending Honolulu Center
02:15PM 20.8000 -156.5500 75° East 220 253 5,100 -2,460 Descending Honolulu Center